createdAt,value
2018-12-20T00:01:28.776Z,100751.66
2018-12-20T00:03:57.793Z,100757.36
2018-12-20T00:06:26.970Z,100758.23
2018-12-20T00:08:55.980Z,100761.73
2018-12-20T00:11:24.808Z,100767.19
2018-12-20T00:13:54.141Z,100765.16
2018-12-20T00:16:22.967Z,100777.44
2018-12-20T00:18:52.316Z,100777.09
2018-12-20T00:21:21.292Z,100769.50
2018-12-20T00:23:50.279Z,100776.88
2018-12-20T00:26:19.141Z,100773.34
2018-12-20T00:28:48.280Z,100780.63
2018-12-20T00:31:17.108Z,100784.55
2018-12-20T00:33:46.019Z,100786.81
2018-12-20T00:36:15.345Z,100788.49
2018-12-20T00:38:44.412Z,100787.58
2018-12-20T00:41:13.427Z,100791.75
2018-12-20T00:43:42.425Z,100789.95
2018-12-20T00:46:11.460Z,100791.40
2018-12-20T00:48:40.399Z,100789.66
2018-12-20T00:51:09.416Z,100798.25
2018-12-20T00:53:38.441Z,100793.63
2018-12-20T00:56:07.424Z,100795.03
2018-12-20T00:58:36.556Z,100795.42
2018-12-20T01:01:05.715Z,100798.97
2018-12-20T01:03:34.945Z,100800.05
2018-12-20T01:06:03.905Z,100796.95
2018-12-20T01:08:32.936Z,100806.16
2018-12-20T01:11:02.264Z,100798.33
2018-12-20T01:13:31.504Z,100800.27
2018-12-20T01:16:00.506Z,100798.77
2018-12-20T01:18:29.723Z,100803.28
2018-12-20T01:20:58.747Z,100794.22
2018-12-20T01:26:06.846Z,100797.97
2018-12-20T01:28:35.873Z,100795.09
2018-12-20T01:31:04.799Z,100793.03
2018-12-20T01:33:33.613Z,100790.45
2018-12-20T01:36:02.820Z,100785.73
2018-12-20T01:38:32.125Z,100787.06
2018-12-20T01:41:01.013Z,100775.52
2018-12-20T01:43:29.933Z,100776.13
2018-12-20T01:45:59.018Z,100773.70
2018-12-20T01:48:29.058Z,100780.55
2018-12-20T01:50:58.330Z,100771.11
2018-12-20T01:53:27.401Z,100776.63
2018-12-20T01:55:56.452Z,100766.80
2018-12-20T01:58:25.567Z,100759.42
2018-12-20T02:00:54.553Z,100761.80
2018-12-20T02:03:23.804Z,100765.26
2018-12-20T02:05:52.826Z,100763.05
2018-12-20T02:08:21.800Z,100756.79
2018-12-20T02:10:50.843Z,100758.46
2018-12-20T02:13:19.981Z,100756.42
2018-12-20T02:15:49.124Z,100756.75
2018-12-20T02:18:18.330Z,100761.69
2018-12-20T02:20:47.357Z,100764.08
2018-12-20T02:23:16.193Z,100761.17
2018-12-20T02:25:45.241Z,100765.95
2018-12-20T02:28:14.400Z,100766.14
2018-12-20T02:30:43.509Z,100764.39
2018-12-20T02:33:12.327Z,100769.72
2018-12-20T02:35:41.304Z,100773.22
2018-12-20T02:38:10.600Z,100772.09
2018-12-20T02:40:39.627Z,100767.91
2018-12-20T02:43:08.588Z,100772.41
2018-12-20T02:45:37.488Z,100778.70
2018-12-20T02:48:06.601Z,100768.63
2018-12-20T02:50:35.665Z,100770.34
2018-12-20T02:53:04.713Z,100786.03
2018-12-20T02:55:33.732Z,100779.95
2018-12-20T02:58:02.555Z,100779.58
2018-12-20T03:00:31.504Z,100785.38
2018-12-20T03:03:00.648Z,100783.39
2018-12-20T03:05:29.469Z,100780.93
2018-12-20T03:07:58.576Z,100793.58
2018-12-20T03:10:27.423Z,100786.96
2018-12-20T03:12:56.683Z,100789.14
2018-12-20T03:15:25.613Z,100789.86
2018-12-20T03:17:54.946Z,100797.56
2018-12-20T03:20:24.322Z,100800.52
2018-12-20T03:22:53.332Z,100802.27
2018-12-20T03:25:22.361Z,100805.55
2018-12-20T03:27:51.591Z,100811.05
2018-12-20T03:30:20.735Z,100808.06
2018-12-20T03:32:49.916Z,100800.34
2018-12-20T03:35:18.856Z,100813.72
2018-12-20T03:37:47.894Z,100810.08
2018-12-20T03:40:16.921Z,100818.66
2018-12-20T03:42:46.017Z,100821.81
2018-12-20T03:45:14.992Z,100823.98
2018-12-20T03:47:44.242Z,100826.94
2018-12-20T03:50:13.233Z,100829.23
2018-12-20T03:52:42.448Z,100836.55
2018-12-20T03:55:11.758Z,100841.66
2018-12-20T03:57:40.684Z,100843.42
2018-12-20T04:00:09.934Z,100841.63
2018-12-20T04:02:38.968Z,100846.70
2018-12-20T04:05:08.350Z,100848.58
2018-12-20T04:07:38.207Z,100849.17
2018-12-20T04:10:07.566Z,100846.33
2018-12-20T04:12:36.960Z,100846.81
2018-12-20T04:15:06.154Z,100848.42
2018-12-20T04:17:35.329Z,100850.08
2018-12-20T04:20:04.767Z,100852.77
2018-12-20T04:22:33.866Z,100851.02
2018-12-20T04:25:02.756Z,100857.41
2018-12-20T04:27:31.998Z,100859.34
2018-12-20T04:30:01.588Z,100866.86
2018-12-20T04:32:30.708Z,100865.52
2018-12-20T04:34:59.611Z,100872.41
2018-12-20T04:37:28.562Z,100876.04
2018-12-20T04:39:57.459Z,100880.36
2018-12-20T04:42:26.498Z,100880.24
2018-12-20T04:44:55.393Z,100885.73
2018-12-20T04:47:24.305Z,100882.69
2018-12-20T04:49:53.220Z,100889.08
2018-12-20T04:52:22.168Z,100880.38
2018-12-20T04:54:51.266Z,100884.36
2018-12-20T04:57:20.310Z,100885.83
2018-12-20T04:59:49.557Z,100889.95
2018-12-20T05:02:18.766Z,100884.89
2018-12-20T05:04:47.748Z,100885.19
2018-12-20T05:07:17.077Z,100883.06
2018-12-20T05:09:46.272Z,100881.83
2018-12-20T05:12:15.326Z,100886.20
2018-12-20T05:14:44.322Z,100888.23
2018-12-20T05:17:13.472Z,100889.46
2018-12-20T05:19:42.355Z,100889.13
2018-12-20T05:22:11.641Z,100894.23
2018-12-20T05:24:40.601Z,100894.64
2018-12-20T05:27:09.637Z,100896.39
2018-12-20T05:29:38.604Z,100900.83
2018-12-20T05:32:07.410Z,100906.39
2018-12-20T05:34:36.316Z,100901.44
2018-12-20T05:37:05.146Z,100900.05
2018-12-20T05:39:34.183Z,100909.58
2018-12-20T05:42:03.123Z,100905.36
2018-12-20T05:44:32.238Z,100912.72
2018-12-20T05:47:01.299Z,100915.23
2018-12-20T05:49:30.256Z,100910.42
2018-12-20T05:51:59.200Z,100915.20
2018-12-20T05:54:28.168Z,100914.36
2018-12-20T05:56:57.210Z,100911.91
2018-12-20T05:59:26.297Z,100909.81
2018-12-20T06:01:55.257Z,100909.94
2018-12-20T06:04:24.219Z,100912.28
2018-12-20T06:06:53.336Z,100921.77
2018-12-20T06:09:22.909Z,100920.14
2018-12-20T06:11:51.838Z,100929.72
2018-12-20T06:14:20.840Z,100929.35
2018-12-20T06:16:49.937Z,100935.09
2018-12-20T06:19:18.963Z,100932.47
2018-12-20T06:21:47.966Z,100932.63
2018-12-20T06:24:16.997Z,100934.73
2018-12-20T06:26:46.028Z,100937.12
2018-12-20T06:29:14.988Z,100936.91
2018-12-20T06:31:43.944Z,100937.52
2018-12-20T06:34:12.850Z,100939.16
2018-12-20T06:36:41.803Z,100942.16
2018-12-20T06:39:10.612Z,100938.40
2018-12-20T06:41:43.336Z,100940.78
2018-12-20T06:44:12.489Z,100938.39
2018-12-20T06:46:46.909Z,100937.31
2018-12-20T06:49:15.942Z,100949.79
2018-12-20T06:51:44.976Z,100949.88
2018-12-20T06:54:13.898Z,100944.59
2018-12-20T06:56:42.870Z,100949.06
2018-12-20T06:59:11.733Z,100957.70
2018-12-20T07:01:40.559Z,100957.39
2018-12-20T07:04:09.480Z,100961.42
2018-12-20T07:06:38.409Z,100964.92
2018-12-20T07:09:09.164Z,100961.16
2018-12-20T07:11:38.442Z,100961.67
2018-12-20T07:14:07.363Z,100967.23
2018-12-20T07:16:36.387Z,100971.83
2018-12-20T07:19:05.429Z,100971.19
2018-12-20T07:21:34.477Z,100975.66
2018-12-20T07:24:03.421Z,100978.08
2018-12-20T07:26:32.329Z,100981.48
2018-12-20T07:29:01.281Z,100984.29
2018-12-20T07:31:30.101Z,100985.16
2018-12-20T07:33:59.042Z,100984.95
2018-12-20T07:36:27.950Z,100991.28
2018-12-20T07:38:56.865Z,101001.74
2018-12-20T07:41:25.705Z,100997.34
2018-12-20T07:43:54.666Z,100995.70
2018-12-20T07:46:23.521Z,100996.38
2018-12-20T07:48:52.445Z,100987.75
2018-12-20T07:51:21.448Z,100991.15
2018-12-20T07:53:50.253Z,100990.29
2018-12-20T07:56:19.173Z,100990.48
2018-12-20T07:58:48.103Z,100994.58
2018-12-20T08:01:17.052Z,101001.05
2018-12-20T08:03:46.013Z,101005.39
2018-12-20T08:06:14.832Z,101004.05
2018-12-20T08:08:43.847Z,100997.45
2018-12-20T08:11:12.692Z,100991.95
2018-12-20T08:13:41.516Z,100999.53
2018-12-20T08:16:10.412Z,101000.00
2018-12-20T08:18:39.657Z,101001.09
2018-12-20T08:21:08.673Z,101002.48
2018-12-20T08:23:37.498Z,100998.33
2018-12-20T08:26:06.413Z,100997.98
2018-12-20T08:28:35.335Z,101004.58
2018-12-20T08:31:04.260Z,101002.59
2018-12-20T08:33:33.189Z,100995.45
2018-12-20T08:36:02.205Z,100996.99
2018-12-20T08:38:31.120Z,100999.05
2018-12-20T08:40:59.945Z,101000.55
2018-12-20T08:43:28.803Z,100997.29
2018-12-20T08:45:57.722Z,100999.05
2018-12-20T08:48:26.632Z,100989.72
2018-12-20T08:50:55.691Z,100991.97
2018-12-20T08:53:24.591Z,100992.00
2018-12-20T08:55:53.408Z,100990.70
2018-12-20T08:58:22.337Z,100982.33
2018-12-20T09:00:51.250Z,100982.55
2018-12-20T09:03:20.100Z,100990.84
2018-12-20T09:05:49.025Z,100985.10
2018-12-20T09:08:18.458Z,100982.73
2018-12-20T09:10:47.400Z,100978.41
2018-12-20T09:13:16.289Z,100974.50
2018-12-20T09:15:45.440Z,100964.94
2018-12-20T09:18:14.476Z,100964.20
2018-12-20T09:20:43.397Z,100956.75
2018-12-20T09:23:12.237Z,100952.67
2018-12-20T09:25:41.097Z,100948.42
2018-12-20T09:28:09.927Z,100943.00
2018-12-20T09:30:38.728Z,100932.54
2018-12-20T09:33:08.259Z,100930.73
2018-12-20T09:35:37.081Z,100931.14
2018-12-20T09:38:06.005Z,100923.00
2018-12-20T09:40:34.924Z,100916.61
2018-12-20T09:43:04.002Z,100911.40
2018-12-20T09:45:32.835Z,100920.03
2018-12-20T09:48:05.966Z,100914.89
2018-12-20T09:50:35.072Z,100900.58
2018-12-20T09:53:04.417Z,100904.92
2018-12-20T09:55:33.330Z,100896.74
2018-12-20T09:58:02.343Z,100895.44
2018-12-20T10:00:31.309Z,100890.22
2018-12-20T10:03:00.224Z,100888.09
2018-12-20T10:05:29.065Z,100883.77
2018-12-20T10:07:58.109Z,100883.27
2018-12-20T10:10:26.901Z,100880.71
2018-12-20T10:12:55.721Z,100880.70
2018-12-20T10:15:24.721Z,100879.41
2018-12-20T10:17:53.790Z,100873.75
2018-12-20T10:20:22.690Z,100880.72
2018-12-20T10:22:51.989Z,100868.56
2018-12-20T10:25:20.814Z,100865.09
2018-12-20T10:27:49.740Z,100865.09
2018-12-20T10:30:18.559Z,100861.22
2018-12-20T10:32:47.489Z,100860.33
2018-12-20T10:35:16.473Z,100854.27
2018-12-20T10:37:45.305Z,100861.22
2018-12-20T10:40:14.109Z,100854.27
2018-12-20T10:42:43.053Z,100846.87
2018-12-20T10:45:12.013Z,100845.54
2018-12-20T10:47:41.057Z,100835.55
2018-12-20T10:50:10.395Z,100832.55
2018-12-20T10:52:39.332Z,100830.41
2018-12-20T10:55:08.309Z,100826.56
2018-12-20T10:57:37.281Z,100832.20
2018-12-20T11:00:07.457Z,100821.39
2018-12-20T11:02:42.044Z,100815.27
2018-12-20T11:05:16.644Z,100808.33
2018-12-20T11:07:51.206Z,100809.66
2018-12-20T11:10:26.453Z,100803.20
2018-12-20T11:12:55.564Z,100801.47
2018-12-20T11:15:24.632Z,100793.67
2018-12-20T11:17:53.551Z,100792.80
2018-12-20T11:20:22.608Z,100800.11
2018-12-20T11:22:51.709Z,100797.13
2018-12-20T11:25:20.612Z,100794.12
2018-12-20T11:27:49.430Z,100796.25
2018-12-20T11:30:18.245Z,100794.11
2018-12-20T11:32:47.168Z,100790.21
2018-12-20T11:35:16.176Z,100786.72
2018-12-20T11:37:45.108Z,100787.17
2018-12-20T11:40:13.995Z,100786.70
2018-12-20T11:42:42.841Z,100786.27
2018-12-20T11:45:11.868Z,100786.28
2018-12-20T11:47:45.896Z,100779.77
2018-12-20T11:50:15.335Z,100776.33
2018-12-20T11:52:44.361Z,100771.55
2018-12-20T11:55:13.416Z,100765.48
2018-12-20T11:57:42.367Z,100766.37
2018-12-20T12:00:11.444Z,100759.48
2018-12-20T12:02:40.444Z,100770.28
2018-12-20T12:05:09.340Z,100764.23
2018-12-20T12:07:38.396Z,100767.67
2018-12-20T12:10:08.008Z,100760.73
2018-12-20T12:12:37.042Z,100758.16
2018-12-20T12:15:06.818Z,100763.35
2018-12-20T12:17:35.790Z,100757.30
2018-12-20T12:20:05.689Z,100756.43
2018-12-20T12:22:34.743Z,100756.41
2018-12-20T12:25:04.133Z,100753.38
2018-12-20T12:27:33.204Z,100756.88
2018-12-20T12:30:02.712Z,100758.17
2018-12-20T12:32:31.949Z,100761.19
2018-12-20T12:35:00.897Z,100761.22
2018-12-20T12:37:29.855Z,100759.05
2018-12-20T12:39:59.013Z,100766.39
2018-12-20T12:42:27.946Z,100770.23
2018-12-20T12:44:56.892Z,100770.25
2018-12-20T12:47:31.306Z,100785.84
2018-12-20T12:50:00.442Z,100776.31
2018-12-20T12:52:29.396Z,100771.98
2018-12-20T12:54:58.485Z,100770.72
2018-12-20T12:57:27.382Z,100768.16
2018-12-20T12:59:56.386Z,100772.87
2018-12-20T13:02:25.430Z,100774.14
2018-12-20T13:04:54.385Z,100780.23
2018-12-20T13:07:23.346Z,100796.68
2018-12-20T13:09:52.910Z,100787.13
2018-12-20T13:12:21.986Z,100794.02
2018-12-20T13:14:51.258Z,100787.48
2018-12-20T13:17:20.316Z,100793.13
2018-12-20T13:19:49.482Z,100796.16
2018-12-20T13:22:18.717Z,100797.02
2018-12-20T13:24:48.349Z,100798.75
2018-12-20T13:27:17.371Z,100801.77
2018-12-20T13:29:46.525Z,100809.96
2018-12-20T13:32:15.481Z,100806.48
2018-12-20T13:34:44.606Z,100806.14
2018-12-20T13:37:15.920Z,100801.83
2018-12-20T13:39:44.668Z,100813.97
2018-12-20T13:42:13.726Z,100817.82
2018-12-20T13:44:42.805Z,100818.17
2018-12-20T13:47:11.865Z,100816.37
2018-12-20T13:49:41.233Z,100812.12
2018-12-20T13:52:10.252Z,100813.39
2018-12-20T13:54:39.703Z,100816.00
2018-12-20T13:57:08.956Z,100815.05
2018-12-20T13:59:38.306Z,100810.17
2018-12-20T14:02:07.605Z,100815.36
2018-12-20T14:04:36.670Z,100817.50
2018-12-20T14:07:05.857Z,100818.94
2018-12-20T14:09:35.181Z,100821.13
2018-12-20T14:12:04.558Z,100828.37
2018-12-20T14:14:34.310Z,100831.86
2018-12-20T14:17:03.311Z,100833.03
2018-12-20T14:19:32.709Z,100834.72
2018-12-20T14:22:02.456Z,100825.33
2018-12-20T14:24:31.885Z,100826.13
2018-12-20T14:27:00.912Z,100826.55
2018-12-20T14:29:30.205Z,100827.06
2018-12-20T14:31:59.258Z,100823.06
2018-12-20T14:34:28.409Z,100830.84
2018-12-20T14:36:57.396Z,100830.33
2018-12-20T14:39:26.445Z,100820.48
2018-12-20T14:41:56.147Z,100824.55
2018-12-20T14:44:25.084Z,100825.57
2018-12-20T14:46:54.325Z,100827.34
2018-12-20T14:49:23.310Z,100832.12
2018-12-20T14:51:52.312Z,100830.75
2018-12-20T14:54:21.772Z,100836.02
2018-12-20T14:56:51.277Z,100838.44
2018-12-20T14:59:20.353Z,100836.75
2018-12-20T15:01:49.512Z,100835.20
2018-12-20T15:04:19.257Z,100832.98
2018-12-20T15:06:48.708Z,100840.19
2018-12-20T15:09:17.702Z,100831.96
2018-12-20T15:11:47.672Z,100832.87
2018-12-20T15:14:16.836Z,100826.05
2018-12-20T15:16:45.823Z,100827.92
2018-12-20T15:19:14.773Z,100833.34
2018-12-20T15:21:43.993Z,100843.41
2018-12-20T15:24:13.246Z,100841.15
2018-12-20T15:26:44.463Z,100842.36
2018-12-20T15:29:14.633Z,100844.07
2018-12-20T15:31:53.064Z,100843.31
2018-12-20T15:34:16.163Z,100847.23
2018-12-20T15:36:45.916Z,100856.60
2018-12-20T15:39:15.297Z,100852.30
2018-12-20T15:41:44.258Z,100857.41
2018-12-20T15:44:13.217Z,100868.33
2018-12-20T15:46:42.154Z,100866.66
2018-12-20T15:49:11.353Z,100867.29
2018-12-20T15:51:40.313Z,100868.58
2018-12-20T15:54:09.803Z,100866.12
2018-12-20T15:56:38.989Z,100865.25
2018-12-20T15:59:08.256Z,100866.77
2018-12-20T16:01:38.040Z,100863.77
2018-12-20T16:04:07.013Z,100868.80
2018-12-20T16:06:36.061Z,100861.88
2018-12-20T16:09:06.998Z,100867.54
2018-12-20T16:11:36.236Z,100862.91
2018-12-20T16:14:16.711Z,100857.93
2018-12-20T16:16:45.965Z,100869.79
2018-12-20T16:19:14.919Z,100872.53
2018-12-20T16:21:43.889Z,100871.73
2018-12-20T16:24:13.496Z,100883.96
2018-12-20T16:26:42.445Z,100875.70
2018-12-20T16:29:11.689Z,100876.66
2018-12-20T16:31:41.537Z,100877.06
2018-12-20T16:34:10.667Z,100885.73
2018-12-20T16:36:40.016Z,100891.50
2018-12-20T16:39:09.384Z,100900.84
2018-12-20T16:41:38.445Z,100901.16
2018-12-20T16:44:07.410Z,100894.63
2018-12-20T16:46:36.496Z,100892.97
2018-12-20T16:49:13.398Z,100892.52
2018-12-20T16:51:36.929Z,100890.95
2018-12-20T16:54:06.597Z,100894.45
2018-12-20T16:56:35.764Z,100888.63
2018-12-20T16:59:04.973Z,100888.56
2018-12-20T17:01:34.160Z,100890.59
2018-12-20T17:04:03.733Z,100883.77
2018-12-20T17:06:32.577Z,100891.09
2018-12-20T17:09:02.516Z,100881.08
2018-12-20T17:11:31.675Z,100884.13
2018-12-20T17:14:00.643Z,100885.48
2018-12-20T17:16:29.581Z,100888.84
2018-12-20T17:18:58.730Z,100886.22
2018-12-20T17:21:27.873Z,100894.87
2018-12-20T17:23:56.734Z,100894.03
2018-12-20T17:26:25.799Z,100896.23
2018-12-20T17:28:54.787Z,100901.72
2018-12-20T17:31:23.772Z,100904.28
2018-12-20T17:33:53.312Z,100898.37
2018-12-20T17:36:22.273Z,100892.70
2018-12-20T17:38:51.232Z,100892.97
2018-12-20T17:41:20.481Z,100903.55
2018-12-20T17:43:49.541Z,100902.22
2018-12-20T17:46:18.632Z,100901.41
2018-12-20T17:48:47.584Z,100902.25
2018-12-20T17:51:16.519Z,100903.97
2018-12-20T17:53:45.592Z,100904.08
2018-12-20T17:56:17.521Z,100910.23
2018-12-20T17:58:46.492Z,100907.09
2018-12-20T18:01:15.391Z,100898.41
2018-12-20T18:03:44.484Z,100900.54
2018-12-20T18:06:13.678Z,100898.09
2018-12-20T18:08:43.091Z,100900.50
2018-12-20T18:11:12.475Z,100891.16
2018-12-20T18:13:41.468Z,100887.91
2018-12-20T18:16:10.855Z,100886.64
2018-12-20T18:18:39.855Z,100882.83
2018-12-20T18:21:08.722Z,100888.23
2018-12-20T18:23:37.834Z,100886.58
2018-12-20T18:26:06.844Z,100891.67
2018-12-20T18:28:35.852Z,100902.01
2018-12-20T18:31:04.807Z,100912.56
2018-12-20T18:33:33.952Z,100909.16
2018-12-20T18:36:03.053Z,100907.41
2018-12-20T18:38:32.345Z,100903.97
2018-12-20T18:41:01.403Z,100912.98
2018-12-20T18:43:30.357Z,100914.47
2018-12-20T18:45:59.749Z,100904.88
2018-12-20T18:48:28.957Z,100898.92
2018-12-20T18:50:57.834Z,100904.24
2018-12-20T18:53:27.064Z,100908.94
2018-12-20T18:55:56.016Z,100913.14
2018-12-20T18:58:24.852Z,100918.39
2018-12-20T19:00:53.784Z,100909.19
2018-12-20T19:03:23.078Z,100919.09
2018-12-20T19:05:51.931Z,100919.93
2018-12-20T19:08:21.042Z,100924.45
2018-12-20T19:10:50.110Z,100914.05
2018-12-20T19:13:19.273Z,100918.32
2018-12-20T19:15:48.336Z,100914.86
2018-12-20T19:18:17.702Z,100915.03
2018-12-20T19:20:46.745Z,100908.88
2018-12-20T19:23:15.605Z,100906.62
2018-12-20T19:25:44.682Z,100907.16
2018-12-20T19:28:13.837Z,100915.70
2018-12-20T19:30:42.893Z,100916.99
2018-12-20T19:33:11.834Z,100912.34
2018-12-20T19:35:40.809Z,100915.77
2018-12-20T19:38:09.877Z,100909.33
2018-12-20T19:40:39.074Z,100913.21
2018-12-20T19:43:08.146Z,100909.84
2018-12-20T19:45:45.803Z,100903.69
2018-12-20T19:48:08.100Z,100912.16
2018-12-20T19:50:37.571Z,100918.70
2018-12-20T19:53:06.530Z,100914.40
2018-12-20T19:55:35.485Z,100912.65
2018-12-20T19:58:04.760Z,100915.70
2018-12-20T20:00:34.513Z,100921.41
2018-12-20T20:03:03.497Z,100911.87
2018-12-20T20:05:32.589Z,100922.05
2018-12-20T20:08:01.568Z,100927.20
2018-12-20T20:10:30.528Z,100929.98
2018-12-20T20:12:59.582Z,100934.25
2018-12-20T20:15:29.272Z,100931.27
2018-12-20T20:17:58.625Z,100932.72
2018-12-20T20:20:27.865Z,100933.80
2018-12-20T20:22:56.843Z,100936.03
2018-12-20T20:25:25.900Z,100930.33
2018-12-20T20:27:54.960Z,100938.47
2018-12-20T20:30:24.016Z,100943.84
2018-12-20T20:32:53.310Z,100943.92
2018-12-20T20:35:22.247Z,100940.41
2018-12-20T20:37:51.212Z,100941.52
2018-12-20T20:40:20.272Z,100937.18
2018-12-20T20:42:49.221Z,100941.94
2018-12-20T20:45:18.084Z,100933.67
2018-12-20T20:47:47.050Z,100935.35
2018-12-20T20:50:22.409Z,100937.98
2018-12-20T20:52:47.246Z,100931.73
2018-12-20T20:55:16.175Z,100934.43
2018-12-20T20:57:45.117Z,100937.98
2018-12-20T21:00:14.090Z,100935.51
2018-12-20T21:02:43.232Z,100931.05
2018-12-20T21:05:12.485Z,100935.72
2018-12-20T21:07:41.776Z,100931.87
2018-12-20T21:10:11.819Z,100924.98
2018-12-20T21:12:40.677Z,100925.45
2018-12-20T21:15:11.145Z,100919.09
2018-12-20T21:17:40.188Z,100915.73
2018-12-20T21:20:11.277Z,100922.94
2018-12-20T21:22:40.645Z,100916.53
2018-12-20T21:25:09.627Z,100922.25
2018-12-20T21:27:38.485Z,100929.83
2018-12-20T21:30:09.066Z,100922.94
2018-12-20T21:32:37.909Z,100926.28
2018-12-20T21:35:07.766Z,100925.28
2018-12-20T21:37:36.640Z,100916.38
2018-12-20T21:40:06.486Z,100915.09
2018-12-20T21:42:35.634Z,100915.05
2018-12-20T21:45:05.995Z,100916.73
2018-12-20T21:47:34.837Z,100905.98
2018-12-20T21:50:04.789Z,100911.17
2018-12-20T21:52:33.764Z,100912.12
2018-12-20T21:55:02.896Z,100915.24
2018-12-20T21:57:31.836Z,100919.16
2018-12-20T22:00:01.423Z,100919.55
2018-12-20T22:02:30.995Z,100919.72
2018-12-20T22:04:59.962Z,100925.33
2018-12-20T22:07:29.008Z,100923.44
2018-12-20T22:09:57.935Z,100923.05
2018-12-20T22:12:26.872Z,100916.12
2018-12-20T22:14:55.724Z,100917.45
2018-12-20T22:17:24.668Z,100906.17
2018-12-20T22:19:58.618Z,100899.52
2018-12-20T22:22:24.603Z,100896.02
2018-12-20T22:24:53.603Z,100902.75
2018-12-20T22:27:23.158Z,100896.73
2018-12-20T22:29:52.111Z,100890.56
2018-12-20T22:32:20.977Z,100892.77
2018-12-20T22:34:49.826Z,100890.38
2018-12-20T22:37:18.761Z,100891.19
2018-12-20T22:39:47.592Z,100889.80
2018-12-20T22:42:17.141Z,100884.68
2018-12-20T22:44:45.984Z,100887.97
2018-12-20T22:47:14.937Z,100886.71
2018-12-20T22:49:43.920Z,100877.09
2018-12-20T22:52:12.885Z,100874.00
2018-12-20T22:54:41.757Z,100870.44
2018-12-20T22:57:10.693Z,100870.64
2018-12-20T22:59:39.624Z,100877.78
2018-12-20T23:02:08.601Z,100881.08
2018-12-20T23:04:37.721Z,100883.31
2018-12-20T23:07:06.802Z,100889.44
2018-12-20T23:09:35.949Z,100891.33
2018-12-20T23:12:04.905Z,100881.42
2018-12-20T23:14:33.925Z,100875.52
2018-12-20T23:17:02.965Z,100887.09
2018-12-20T23:19:31.902Z,100892.31
2018-12-20T23:22:00.822Z,100897.98
2018-12-20T23:24:29.781Z,100897.00
2018-12-20T23:26:58.636Z,100906.14
2018-12-20T23:29:27.585Z,100905.08
2018-12-20T23:31:56.441Z,100915.34
2018-12-20T23:34:25.490Z,100917.17
2018-12-20T23:36:54.450Z,100923.56
2018-12-20T23:39:23.409Z,100916.80
2018-12-20T23:41:52.367Z,100922.44
2018-12-20T23:44:21.297Z,100919.73
2018-12-20T23:46:50.245Z,100920.73
2018-12-20T23:49:19.188Z,100916.72
2018-12-20T23:51:48.149Z,100900.27
2018-12-20T23:54:17.214Z,100896.92
2018-12-20T23:56:46.053Z,100904.28
2018-12-20T23:59:14.983Z,100910.66
